createdAt,value
2023-02-25T00:04:29.686Z,101909.16
2023-02-25T00:09:32.684Z,101951.44
2023-02-25T00:14:35.668Z,101935.03
2023-02-25T00:19:39.904Z,101952.66
2023-02-25T00:24:43.342Z,101907.94
2023-02-25T00:29:46.513Z,101936.59
2023-02-25T00:34:49.486Z,101918.88
2023-02-25T00:39:52.751Z,101903.78
2023-02-25T00:44:55.661Z,101893.00
2023-02-25T00:49:58.848Z,101908.53
2023-02-25T00:55:03.194Z,101873.81
2023-02-25T01:00:16.306Z,101898.06
2023-02-25T01:22:20.239Z,101895.66
2023-02-25T01:27:23.395Z,101888.63
2023-02-25T01:32:26.627Z,101863.16
2023-02-25T01:37:31.910Z,101865.09
2023-02-25T01:42:34.595Z,101885.72
2023-02-25T01:47:40.482Z,101868.88
2023-02-25T01:52:45.261Z,101883.69
2023-02-25T01:57:50.721Z,101876.41
2023-02-25T02:02:55.912Z,101879.78
2023-02-25T02:08:00.936Z,101881.38
2023-02-25T02:13:04.010Z,101868.88
2023-02-25T02:18:34.250Z,101887.78
2023-02-25T02:24:05.223Z,101887.78
2023-02-25T02:29:20.520Z,101897.63
2023-02-25T02:34:50.029Z,101877.25
2023-02-25T02:39:56.042Z,101885.22
2023-02-25T02:45:10.901Z,101900.28
2023-02-25T02:50:26.521Z,101865.97
2023-02-25T02:55:41.481Z,101871.31
2023-02-25T03:00:50.225Z,101854.41
2023-02-25T03:05:54.781Z,101858.91
2023-02-25T03:10:57.822Z,101849.19
2023-02-25T03:16:05.996Z,101869.81
2023-02-25T03:21:17.265Z,101859.16
2023-02-25T03:26:30.436Z,101852.47
2023-02-25T03:31:43.305Z,101832.09
2023-02-25T03:37:03.801Z,101809.03
2023-02-25T03:42:13.015Z,101852.47
2023-02-25T03:47:19.585Z,101826.25
2023-02-25T03:52:25.935Z,101835.25
2023-02-25T03:57:41.762Z,101843.50
2023-02-25T04:02:47.052Z,101850.41
2023-02-25T04:07:50.155Z,101847.16
2023-02-25T04:12:53.530Z,101821.53
2023-02-25T04:17:56.624Z,101838.13
2023-02-25T04:23:01.123Z,101825.22
2023-02-25T04:28:04.388Z,101835.47
2023-02-25T04:33:07.439Z,101834.28
2023-02-25T04:38:11.222Z,101821.88
2023-02-25T04:43:13.911Z,101824.41
2023-02-25T04:48:16.980Z,101823.03
2023-02-25T04:53:19.827Z,101814.28
2023-02-25T04:58:22.857Z,101814.03
2023-02-25T05:03:26.088Z,101831.44
2023-02-25T05:08:29.166Z,101819.78
2023-02-25T05:13:32.204Z,101827.13
2023-02-25T05:18:39.962Z,101826.34
2023-02-25T05:23:44.733Z,101830.06
2023-02-25T05:28:50.857Z,101815.22
2023-02-25T05:33:53.970Z,101813.69
2023-02-25T05:39:03.242Z,101824.84
2023-02-25T05:44:06.574Z,101824.72
2023-02-25T05:49:10.456Z,101808.34
2023-02-25T05:54:13.385Z,101824.78
2023-02-25T05:59:18.258Z,101815.41
2023-02-25T06:04:22.499Z,101829.81
2023-02-25T06:09:27.194Z,101814.22
2023-02-25T06:14:30.449Z,101805.09
2023-02-25T06:19:33.507Z,101808.69
2023-02-25T06:24:36.531Z,101825.75
2023-02-25T06:29:42.047Z,101800.13
2023-02-25T06:34:45.118Z,101802.84
2023-02-25T06:39:47.914Z,101788.22
2023-02-25T06:44:51.247Z,101779.03
2023-02-25T06:49:54.242Z,101797.63
2023-02-25T06:54:57.490Z,101782.22
2023-02-25T07:00:00.412Z,101794.06
2023-02-25T07:05:03.410Z,101793.50
2023-02-25T07:10:07.298Z,101780.31
2023-02-25T07:15:10.970Z,101789.31
2023-02-25T07:20:14.205Z,101772.50
2023-02-25T07:25:16.958Z,101793.06
2023-02-25T07:30:20.796Z,101771.22
2023-02-25T07:35:23.737Z,101754.03
2023-02-25T07:40:26.773Z,101790.97
2023-02-25T07:45:30.026Z,101767.66
2023-02-25T07:50:33.617Z,101770.59
2023-02-25T07:55:36.623Z,101800.34
2023-02-25T08:00:39.400Z,101787.47
2023-02-25T08:05:42.200Z,101787.19
2023-02-25T08:10:44.863Z,101791.25
2023-02-25T08:15:48.026Z,101756.13
2023-02-25T08:20:51.022Z,101782.97
2023-02-25T08:25:55.793Z,101775.88
2023-02-25T08:31:00.278Z,101768.78
2023-02-25T08:36:18.295Z,101736.72
2023-02-25T08:41:23.153Z,101738.19
2023-02-25T08:46:29.548Z,101728.06
2023-02-25T08:51:36.150Z,101715.00
2023-02-25T08:56:45.713Z,101711.75
2023-02-25T09:01:50.661Z,101703.44
2023-02-25T09:06:54.491Z,101685.41
2023-02-25T09:11:58.465Z,101707.66
2023-02-25T09:17:06.303Z,101678.41
2023-02-25T09:22:10.904Z,101688.69
2023-02-25T09:27:13.805Z,101679.72
2023-02-25T09:32:20.246Z,101679.78
2023-02-25T09:37:23.746Z,101679.88
2023-02-25T09:42:41.256Z,101653.84
2023-02-25T09:48:20.095Z,101668.94
2023-02-25T09:53:30.908Z,101679.41
2023-02-25T09:58:49.009Z,101669.19
2023-02-25T10:04:20.075Z,101653.59
2023-02-25T10:09:40.716Z,101664.09
2023-02-25T10:15:13.968Z,101666.34
2023-02-25T10:20:52.500Z,101669.50
2023-02-25T10:26:07.694Z,101665.00
2023-02-25T10:31:18.894Z,101623.91
2023-02-25T10:36:39.851Z,101607.16
2023-02-25T10:41:42.855Z,101637.91
2023-02-25T10:46:53.166Z,101626.97
2023-02-25T10:52:03.609Z,101639.50
2023-02-25T10:57:15.336Z,101638.00
2023-02-25T11:02:41.981Z,101628.09
2023-02-25T11:07:45.412Z,101634.72
2023-02-25T11:12:51.049Z,101631.25
2023-02-25T11:17:55.984Z,101623.59
2023-02-25T11:22:59.938Z,101628.28
2023-02-25T11:28:03.387Z,101619.41
2023-02-25T11:33:19.685Z,101616.41
2023-02-25T11:38:32.989Z,101613.50
2023-02-25T11:43:40.211Z,101601.47
2023-02-25T11:48:49.404Z,101613.69
2023-02-25T11:54:05.547Z,101589.09
2023-02-25T11:59:31.040Z,101615.00
2023-02-25T12:04:33.856Z,101616.50
2023-02-25T12:09:42.547Z,101604.34
2023-02-25T12:15:06.476Z,101603.78
2023-02-25T12:20:43.336Z,101624.72
2023-02-25T12:25:55.946Z,101627.72
2023-02-25T12:31:26.665Z,101614.38
2023-02-25T12:37:06.376Z,101598.75
2023-02-25T12:42:29.456Z,101620.34
2023-02-25T12:47:37.890Z,101624.06
2023-02-25T12:52:47.842Z,101614.91
2023-02-25T12:58:12.007Z,101611.34
2023-02-25T13:03:47.701Z,101640.25
2023-02-25T13:09:20.975Z,101646.97
2023-02-25T13:14:38.786Z,101625.09
2023-02-25T13:20:15.393Z,101610.41
2023-02-25T13:25:40.483Z,101612.75
2023-02-25T13:30:57.575Z,101592.56
2023-02-25T13:36:10.025Z,101577.81
2023-02-25T13:41:45.541Z,101539.69
2023-02-25T13:47:03.651Z,101567.22
2023-02-25T13:52:24.924Z,101556.38
2023-02-25T13:57:43.188Z,101549.59
2023-02-25T14:02:50.055Z,101541.16
2023-02-25T14:08:02.549Z,101572.16
2023-02-25T14:13:24.174Z,101558.63
2023-02-25T14:18:45.004Z,101582.63
2023-02-25T14:23:59.836Z,101576.63
2023-02-25T14:29:15.399Z,101559.31
2023-02-25T14:34:46.347Z,101556.97
2023-02-25T14:40:13.218Z,101565.00
2023-02-25T14:45:22.239Z,101579.28
2023-02-25T14:50:31.487Z,101559.31
2023-02-25T14:55:39.955Z,101545.88
2023-02-25T15:01:04.407Z,101556.50
2023-02-25T15:06:10.434Z,101586.22
2023-02-25T15:11:27.787Z,101576.69
2023-02-25T15:16:42.950Z,101571.66
2023-02-25T15:21:49.411Z,101532.03
2023-02-25T15:26:52.852Z,101550.19
2023-02-25T15:32:30.778Z,101568.09
2023-02-25T15:37:33.789Z,101565.97
2023-02-25T15:42:48.951Z,101570.63
2023-02-25T15:48:11.792Z,101559.78
2023-02-25T15:53:23.605Z,101565.38
2023-02-25T15:58:26.740Z,101558.19
2023-02-25T16:03:32.617Z,101579.97
2023-02-25T16:08:41.697Z,101565.09
2023-02-25T16:13:44.849Z,101557.25
2023-02-25T16:18:51.138Z,101551.56
2023-02-25T16:23:54.927Z,101536.34
2023-02-25T16:29:18.561Z,101541.75
2023-02-25T16:34:46.881Z,101526.25
2023-02-25T16:39:49.998Z,101565.47
2023-02-25T16:44:59.486Z,101516.06
2023-02-25T16:50:08.066Z,101528.56
2023-02-25T16:55:21.172Z,101512.88
2023-02-25T17:00:25.633Z,101538.09
2023-02-25T17:05:30.342Z,101552.19
2023-02-25T17:10:50.155Z,101564.03
2023-02-25T17:15:53.429Z,101546.66
2023-02-25T17:21:08.621Z,101543.72
2023-02-25T17:26:16.503Z,101546.00
2023-02-25T17:31:27.161Z,101548.19
2023-02-25T17:36:36.204Z,101552.00
2023-02-25T17:41:43.990Z,101573.94
2023-02-25T17:46:50.759Z,101575.31
2023-02-25T17:51:56.849Z,101561.50
2023-02-25T17:57:06.929Z,101572.44
2023-02-25T18:02:33.151Z,101571.03
2023-02-25T18:07:38.348Z,101601.63
2023-02-25T18:12:41.518Z,101561.38
2023-02-25T18:17:50.138Z,101572.47
2023-02-25T18:22:54.276Z,101568.75
2023-02-25T18:27:57.270Z,101600.78
2023-02-25T18:33:00.855Z,101577.72
2023-02-25T18:38:03.666Z,101587.03
2023-02-25T18:43:07.534Z,101572.13
2023-02-25T18:48:10.858Z,101582.69
2023-02-25T18:53:24.090Z,101596.03
2023-02-25T18:58:27.188Z,101577.47
2023-02-25T19:03:39.398Z,101599.22
2023-02-25T19:08:42.217Z,101602.28
2023-02-25T19:13:45.253Z,101570.25
2023-02-25T19:18:48.109Z,101596.03
2023-02-25T19:23:51.830Z,101572.50
2023-02-25T19:28:54.737Z,101621.66
2023-02-25T19:33:57.851Z,101583.59
2023-02-25T19:39:00.765Z,101598.00
2023-02-25T19:44:03.798Z,101575.03
2023-02-25T19:49:06.601Z,101580.03
2023-02-25T19:54:09.593Z,101585.47
2023-02-25T19:59:12.709Z,101604.91
2023-02-25T20:04:16.930Z,101588.47
2023-02-25T20:09:19.874Z,101581.91
2023-02-25T20:14:24.293Z,101579.69
2023-02-25T20:19:33.318Z,101543.91
2023-02-25T20:24:36.584Z,101563.53
2023-02-25T20:29:39.929Z,101568.47
2023-02-25T20:34:43.511Z,101563.25
2023-02-25T20:39:52.556Z,101541.28
2023-02-25T20:44:56.181Z,101545.22
2023-02-25T20:49:59.733Z,101530.34
2023-02-25T20:55:02.812Z,101534.94
2023-02-25T21:00:09.484Z,101515.03
2023-02-25T21:05:12.609Z,101521.75
2023-02-25T21:10:15.846Z,101519.81
2023-02-25T21:15:18.908Z,101507.66
2023-02-25T21:20:22.090Z,101506.94
2023-02-25T21:25:25.071Z,101515.06
2023-02-25T21:30:27.962Z,101526.53
2023-02-25T21:35:31.297Z,101507.50
2023-02-25T21:40:34.498Z,101483.88
2023-02-25T21:45:38.933Z,101497.41
2023-02-25T21:50:46.263Z,101493.66
2023-02-25T21:55:49.219Z,101508.50
2023-02-25T22:00:52.211Z,101492.63
2023-02-25T22:05:55.259Z,101475.16
2023-02-25T22:10:58.523Z,101495.81
2023-02-25T22:16:03.718Z,101493.66
2023-02-25T22:21:10.518Z,101502.44
2023-02-25T22:26:16.347Z,101501.75
2023-02-25T22:31:19.483Z,101493.13
2023-02-25T22:36:23.458Z,101500.16
2023-02-25T22:41:29.709Z,101512.78
2023-02-25T22:46:39.173Z,101513.47
2023-02-25T22:51:46.026Z,101513.00
2023-02-25T22:56:50.059Z,101501.31
2023-02-25T23:01:52.989Z,101492.16
2023-02-25T23:06:56.169Z,101497.44
2023-02-25T23:12:00.318Z,101482.06
2023-02-25T23:17:03.183Z,101450.88
2023-02-25T23:22:06.371Z,101498.56
2023-02-25T23:27:09.446Z,101479.44
2023-02-25T23:32:12.241Z,101455.06
2023-02-25T23:37:16.065Z,101472.91
2023-02-25T23:42:19.021Z,101437.06
2023-02-25T23:47:22.336Z,101446.31
2023-02-25T23:52:25.165Z,101459.03
2023-02-25T23:57:28.165Z,101471.81
